Terminal Aerodrome Forecast
Issued by NWS

Home | Current Version | Previous Version | Text Only | Print | Product List | Glossary On
Versions: 1 2 3 4 5 6 7 8 9 10 11 12 13 14 15 16 17 18 19 20 21 22
649
FTUS43 KILX 240816 AAB
TAFDEC
TAF AMD
KDEC 240816Z 2408/2506 20006KT P6SM SKC
     FM241000 20005KT 5SM BR SKC
     FM241400 20010KT P6SM SCT035 BKN250
     FM242200 19010KT P6SM VCTS SCT050CB BKN250=

USA.gov is the U.S. government's official web portal to all federal, state and local government web resources and services.